Time;durP1;ratioP1;P1;durP2;ratioP2;P2;SDS_P1;SDS_P2;PMS_P1;PMS_P2;Temp;Humidity;BMP_temperature;BMP_pressure;BME280_temperature;BME280_humidity;BME280_pressure;Samples;Min_cycle;Max_cycle;Signal;HPM_P1;HPM_P2
2023/11/19 00:01:02;;;;;;;2.28;0.90;;;13.70;76.60;;;;;;2554071;54;20959;-73
2023/11/19 00:03:28;;;;;;;2.08;0.73;;;13.70;76.60;;;;;;2554853;54;21547;-73
2023/11/19 00:05:55;;;;;;;3.97;1.00;;;13.70;76.60;;;;;;2554080;54;21007;-73
2023/11/19 00:08:26;;;;;;;2.50;0.73;;;13.80;76.70;;;;;;2554803;54;20978;-73
2023/11/19 00:10:57;;;;;;;;;;;13.80;76.80;;;;;;2317186;55;20971;-73
2023/11/19 00:13:25;;;;;;;1.95;0.62;;;13.80;76.10;;;;;;2555042;54;20060;-73
2023/11/19 00:15:52;;;;;;;1.48;0.60;;;13.80;76.60;;;;;;2554967;54;21067;-73
2023/11/19 00:18:20;;;;;;;1.33;0.55;;;13.80;76.70;;;;;;2555329;54;21058;-73
2023/11/19 00:20:46;;;;;;;1.92;0.62;;;13.80;76.80;;;;;;2554766;54;20958;-72
2023/11/19 00:23:13;;;;;;;3.87;0.68;;;13.90;77.00;;;;;;2555085;54;20990;-73
2023/11/19 00:25:39;;;;;;;1.20;0.50;;;13.90;77.10;;;;;;2314559;55;20919;-73
2023/11/19 00:28:06;;;;;;;1.85;0.60;;;13.90;77.10;;;;;;2314390;55;21050;-73
2023/11/19 00:30:32;;;;;;;0.82;0.40;;;13.90;77.10;;;;;;2554334;54;20939;-72
2023/11/19 00:33:01;;;;;;;1.60;0.80;;;13.90;77.10;;;;;;2317484;54;20957;-73
2023/11/19 00:35:31;;;;;;;1.40;0.60;;;14.00;77.20;;;;;;2311455;54;21001;-73
2023/11/19 00:37:58;;;;;;;2.40;0.80;;;14.00;78.00;;;;;;2312165;54;20971;-74
2023/11/19 00:40:24;;;;;;;2.47;0.77;;;14.00;77.30;;;;;;2314800;55;20963;-72
2023/11/19 00:42:50;;;;;;;2.60;0.65;;;14.00;77.20;;;;;;2314626;55;20963;-72
2023/11/19 00:45:21;;;;;;;2.00;0.60;;;14.10;77.30;;;;;;2315468;55;21464;-74
2023/11/19 00:47:47;;;;;;;3.65;0.60;;;14.00;77.10;;;;;;2314701;55;20955;-74
2023/11/19 00:50:14;;;;;;;1.87;0.62;;;14.20;77.30;;;;;;2555635;54;20979;-74
2023/11/19 00:52:40;;;;;;;1.92;0.60;;;14.10;77.20;;;;;;2555382;54;20947;-73
2023/11/19 00:55:06;;;;;;;1.77;0.70;;;14.10;77.20;;;;;;2314583;55;20935;-73
2023/11/19 00:57:33;;;;;;;1.65;0.55;;;14.20;77.30;;;;;;2553930;54;21098;-72
2023/11/19 00:59:59;;;;;;;2.12;0.70;;;14.20;77.30;;;;;;2314808;54;21046;-73
2023/11/19 01:02:26;;;;;;;1.62;0.60;;;14.20;77.30;;;;;;2314416;55;21002;-73
2023/11/19 01:04:53;;;;;;;3.60;0.90;;;14.20;77.20;;;;;;2315743;54;20986;-73
2023/11/19 01:07:21;;;;;;;1.15;0.60;;;14.30;77.30;;;;;;2555026;54;21014;-73
2023/11/19 01:09:48;;;;;;;1.75;0.70;;;14.20;77.10;;;;;;2554172;54;21070;-75
2023/11/19 01:12:14;;;;;;;2.67;0.80;;;14.30;77.20;;;;;;2548608;54;20955;-74
2023/11/19 01:14:40;;;;;;;1.62;0.62;;;14.30;77.20;;;;;;2314377;55;21239;-74
2023/11/19 01:17:06;;;;;;;1.62;0.60;;;14.30;77.10;;;;;;2314238;55;21026;-73
2023/11/19 01:19:34;;;;;;;2.70;0.80;;;14.30;77.10;;;;;;2554819;54;21011;-74
2023/11/19 01:22:00;;;;;;;3.08;0.80;;;14.30;77.00;;;;;;2314510;55;21635;-74
2023/11/19 01:24:28;;;;;;;2.05;0.88;;;14.30;77.00;;;;;;2555363;54;21031;-73
2023/11/19 01:26:54;;;;;;;2.75;0.80;;;14.40;77.10;;;;;;2549547;54;20937;-74
2023/11/19 01:29:24;;;;;;;5.43;1.75;;;14.40;77.10;;;;;;2555552;54;20991;-73
2023/11/19 01:31:53;;;;;;;3.12;1.30;;;14.40;77.00;;;;;;2314366;55;21023;-72
2023/11/19 01:34:19;;;;;;;2.30;1.02;;;14.40;77.10;;;;;;2315171;55;21877;-73
2023/11/19 01:36:46;;;;;;;1.90;0.80;;;14.40;77.00;;;;;;2314409;55;21429;-74
2023/11/19 01:39:15;;;;;;;2.55;0.75;;;14.40;77.00;;;;;;2549791;54;20990;-73
2023/11/19 01:41:43;;;;;;;1.62;0.70;;;14.40;77.00;;;;;;2313504;54;21034;-73
2023/11/19 01:44:12;;;;;;;1.42;0.68;;;14.40;76.90;;;;;;2553924;54;20971;-73
2023/11/19 01:46:40;;;;;;;1.75;0.77;;;14.50;77.00;;;;;;2314092;55;21583;-74
2023/11/19 01:49:06;;;;;;;2.08;0.80;;;14.50;77.00;;;;;;2314071;55;20935;-73
2023/11/19 01:51:32;;;;;;;1.87;0.82;;;14.50;76.90;;;;;;2314196;55;20939;-73
2023/11/19 01:53:59;;;;;;;3.50;0.80;;;14.50;76.80;;;;;;2317473;55;21373;-73
2023/11/19 01:56:25;;;;;;;1.90;0.70;;;14.50;76.80;;;;;;2549878;54;21006;-73
2023/11/19 01:58:53;;;;;;;1.80;0.70;;;14.50;76.70;;;;;;2314408;55;21007;-74
2023/11/19 02:01:20;;;;;;;1.67;0.70;;;14.50;76.70;;;;;;2315399;55;20972;-73
2023/11/19 02:03:47;;;;;;;2.33;0.82;;;14.50;76.70;;;;;;2315395;54;20935;-73
2023/11/19 02:06:13;;;;;;;1.65;0.70;;;14.50;76.70;;;;;;2554783;54;20971;-75
2023/11/19 02:08:39;;;;;;;1.98;0.77;;;14.50;76.70;;;;;;2314158;54;21493;-74
2023/11/19 02:11:09;;;;;;;1.85;0.70;;;14.50;76.70;;;;;;2554115;54;21428;-73
2023/11/19 02:13:37;;;;;;;2.35;0.73;;;14.50;76.70;;;;;;2314535;54;21027;-74
2023/11/19 02:16:04;;;;;;;2.30;0.80;;;14.50;76.70;;;;;;2554873;54;20963;-73
2023/11/19 02:18:30;;;;;;;1.75;0.68;;;14.50;76.70;;;;;;2314751;55;20967;-74
2023/11/19 02:20:59;;;;;;;1.67;0.60;;;14.50;76.70;;;;;;2316431;54;20985;-73
2023/11/19 02:23:28;;;;;;;2.20;0.90;;;14.50;76.60;;;;;;2551460;54;21428;-73
2023/11/19 02:27:29;;;;;;;5.62;0.73;;;14.50;76.50;;;;;;2291520;55;21866;-73
2023/11/19 02:29:55;;;;;;;1.67;0.52;;;14.50;76.50;;;;;;2314389;55;20947;-74
2023/11/19 02:32:21;;;;;;;3.25;0.60;;;14.50;76.50;;;;;;2554950;54;21074;-74
2023/11/19 02:34:49;;;;;;;1.75;0.68;;;14.50;76.50;;;;;;2313525;54;20981;-74
2023/11/19 02:37:15;;;;;;;1.70;0.68;;;14.50;76.60;;;;;;2314556;55;20966;-75
2023/11/19 02:39:41;;;;;;;2.40;0.80;;;14.50;76.50;;;;;;2317216;55;20959;-74
2023/11/19 02:42:08;;;;;;;1.58;0.80;;;14.60;76.60;;;;;;2549078;54;21069;-75
2023/11/19 02:44:34;;;;;;;1.55;0.60;;;14.60;76.60;;;;;;2314975;55;20995;-74
2023/11/19 02:47:04;;;;;;;1.95;0.80;;;14.50;76.50;;;;;;2554884;54;21271;-74
2023/11/19 02:49:32;;;;;;;2.92;0.80;;;14.50;76.50;;;;;;2554877;54;20975;-74
2023/11/19 02:52:01;;;;;;;1.35;0.60;;;14.50;76.50;;;;;;2317422;54;21417;-74
2023/11/19 02:54:28;;;;;;;3.10;0.65;;;14.60;76.50;;;;;;2304044;54;20936;-74
2023/11/19 02:56:59;;;;;;;2.00;0.70;;;14.50;76.50;;;;;;2313525;54;21042;-74
2023/11/19 02:59:38;;;;;;;2.03;0.57;;;14.50;76.50;;;;;;2523911;54;21003;-73
2023/11/19 03:02:06;;;;;;;2.42;0.70;;;14.50;76.50;;;;;;2314192;54;21555;-75
2023/11/19 03:04:35;;;;;;;1.42;0.55;;;14.60;76.60;;;;;;2314855;55;21010;-75
2023/11/19 03:07:03;;;;;;;2.75;0.55;;;14.50;76.50;;;;;;2313223;55;20947;-74
2023/11/19 03:09:30;;;;;;;1.15;0.50;;;14.50;77.20;;;;;;2555078;54;20983;-75
2023/11/19 03:11:57;;;;;;;2.28;0.80;;;14.50;76.50;;;;;;2313015;54;21049;-74
2023/11/19 03:14:23;;;;;;;3.05;0.62;;;14.50;76.60;;;;;;2554894;53;20931;-75
2023/11/19 03:16:50;;;;;;;1.37;0.60;;;14.60;76.80;;;;;;2554775;54;21007;-74
2023/11/19 03:19:19;;;;;;;1.80;0.70;;;14.50;76.70;;;;;;2315667;54;20954;-75
2023/11/19 03:21:49;;;;;;;1.90;0.70;;;14.50;76.70;;;;;;2550723;54;21077;-75
2023/11/19 03:24:15;;;;;;;1.58;0.57;;;14.50;76.70;;;;;;2538769;53;21019;-74
2023/11/19 03:26:42;;;;;;;2.78;0.60;;;14.60;76.80;;;;;;2314805;55;20955;-74
2023/11/19 03:29:09;;;;;;;3.08;0.43;;;14.50;76.80;;;;;;2314683;54;20999;-75
2023/11/19 03:31:35;;;;;;;1.67;0.60;;;14.60;77.60;;;;;;2555431;54;21002;-75
2023/11/19 03:34:02;;;;;;;1.60;0.50;;;14.60;76.90;;;;;;2554400;54;21484;-75
2023/11/19 03:36:34;;;;;;;1.70;0.60;;;14.60;76.90;;;;;;2315001;55;21618;-75
2023/11/19 03:39:04;;;;;;;1.37;0.50;;;14.60;76.80;;;;;;2291302;55;20983;-74
2023/11/19 03:41:30;;;;;;;1.75;0.68;;;14.60;76.80;;;;;;2314229;54;20999;-74
2023/11/19 03:44:07;;;;;;;1.48;0.52;;;14.60;76.80;;;;;;2554001;54;20959;-75
2023/11/19 03:46:35;;;;;;;1.50;0.50;;;14.60;76.90;;;;;;2549218;54;21679;-75
2023/11/19 03:49:06;;;;;;;0.80;0.50;;;14.60;76.90;;;;;;2554765;54;21796;-74
2023/11/19 03:51:36;;;;;;;0.98;0.50;;;14.60;77.00;;;;;;2315302;55;20948;-75
2023/11/19 03:54:03;;;;;;;1.02;0.43;;;14.60;77.00;;;;;;2314611;55;21011;-75
2023/11/19 03:56:31;;;;;;;1.40;0.52;;;14.60;77.00;;;;;;2314901;55;20969;-75
2023/11/19 03:58:57;;;;;;;1.23;0.45;;;14.70;77.10;;;;;;2554445;54;21035;-75
2023/11/19 04:01:23;;;;;;;1.62;0.55;;;14.70;77.20;;;;;;2554950;54;20947;-75
2023/11/19 04:03:49;;;;;;;0.88;0.37;;;14.70;77.20;;;;;;2314926;54;21267;-75
2023/11/19 04:06:17;;;;;;;1.52;0.50;;;14.70;77.30;;;;;;2314382;55;21951;-75
2023/11/19 04:08:43;;;;;;;1.45;0.45;;;14.80;77.40;;;;;;2314859;54;20986;-75
2023/11/19 04:11:10;;;;;;;0.73;0.40;;;14.70;77.30;;;;;;2314986;54;20963;-75
2023/11/19 04:13:39;;;;;;;1.15;0.40;;;14.70;77.30;;;;;;2554827;54;21011;-75
2023/11/19 04:16:05;;;;;;;1.33;0.30;;;14.70;77.40;;;;;;2314152;55;20970;-74
2023/11/19 04:18:33;;;;;;;2.40;0.60;;;14.70;77.40;;;;;;2528780;53;20992;-75
2023/11/19 04:21:00;;;;;;;0.90;0.30;;;14.80;77.50;;;;;;2530549;54;21030;-75
2023/11/19 04:23:27;;;;;;;0.75;0.28;;;14.80;77.50;;;;;;2315515;55;21007;-75
2023/11/19 04:25:53;;;;;;;1.10;0.22;;;14.80;77.50;;;;;;2555376;54;20987;-75
2023/11/19 04:28:26;;;;;;;0.82;0.40;;;14.80;77.50;;;;;;2314834;55;20991;-75
2023/11/19 04:30:53;;;;;;;0.77;0.43;;;14.80;77.50;;;;;;2555903;54;20951;-75
2023/11/19 04:33:19;;;;;;;1.33;0.47;;;14.90;77.60;;;;;;2555525;54;21014;-74
2023/11/19 04:35:49;;;;;;;0.95;0.30;;;14.90;77.60;;;;;;2554969;54;21532;-74
2023/11/19 04:38:15;;;;;;;0.50;0.30;;;14.90;77.60;;;;;;2554204;54;20947;-75
2023/11/19 04:40:42;;;;;;;0.93;0.32;;;14.90;77.60;;;;;;2317330;55;21011;-75
2023/11/19 04:43:08;;;;;;;0.82;0.35;;;14.90;77.50;;;;;;2549379;54;20943;-74
2023/11/19 04:45:34;;;;;;;0.85;0.40;;;14.90;77.50;;;;;;2555823;54;20947;-75
2023/11/19 04:48:01;;;;;;;0.50;0.30;;;15.00;77.50;;;;;;2554369;54;21095;-75
2023/11/19 04:50:28;;;;;;;0.90;0.30;;;15.00;77.50;;;;;;2549938;54;20945;-74
2023/11/19 04:52:55;;;;;;;0.60;0.30;;;15.00;77.50;;;;;;2554772;54;21752;-75
2023/11/19 04:55:23;;;;;;;0.62;0.30;;;15.00;77.50;;;;;;2314384;55;20976;-74
2023/11/19 04:57:51;;;;;;;0.57;0.30;;;15.00;77.50;;;;;;2312810;55;20941;-74
2023/11/19 05:00:17;;;;;;;1.45;0.35;;;15.00;77.50;;;;;;2316394;55;21044;-75
2023/11/19 05:02:43;;;;;;;1.12;0.40;;;15.00;77.40;;;;;;2314505;55;21984;-75
2023/11/19 05:05:10;;;;;;;0.52;0.30;;;15.10;77.60;;;;;;2314600;55;22091;-75
2023/11/19 05:07:36;;;;;;;0.95;0.40;;;15.10;77.60;;;;;;2550182;54;21007;-74
2023/11/19 05:10:05;;;;;;;0.43;0.22;;;15.20;77.60;;;;;;2310927;55;20977;-74
2023/11/19 05:12:32;;;;;;;0.73;0.35;;;15.10;77.50;;;;;;2314372;55;20954;-75
2023/11/19 05:14:58;;;;;;;0.65;0.30;;;15.10;78.20;;;;;;2552141;54;21019;-74
2023/11/19 05:17:24;;;;;;;0.70;0.40;;;15.10;77.50;;;;;;2547277;54;20967;-73
2023/11/19 05:19:51;;;;;;;0.45;0.28;;;15.10;77.40;;;;;;2555195;54;21019;-72
2023/11/19 05:22:17;;;;;;;1.25;0.35;;;15.10;77.40;;;;;;2554509;54;20938;-75
2023/11/19 05:24:44;;;;;;;0.68;0.30;;;15.20;77.40;;;;;;2554952;54;20971;-72
2023/11/19 05:27:11;;;;;;;0.75;0.32;;;15.20;77.30;;;;;;2313629;55;21011;-72
2023/11/19 05:29:39;;;;;;;0.73;0.30;;;15.20;77.30;;;;;;2288077;55;20956;-73
2023/11/19 05:32:07;;;;;;;0.47;0.30;;;15.20;77.30;;;;;;2516463;54;21030;-74
2023/11/19 05:34:34;;;;;;;0.73;0.30;;;15.20;77.40;;;;;;2284283;55;21011;-75
2023/11/19 05:37:00;;;;;;;0.50;0.30;;;15.20;77.40;;;;;;2511992;54;21554;-74
2023/11/19 05:39:30;;;;;;;0.88;0.30;;;15.20;77.40;;;;;;2510330;54;20979;-75
2023/11/19 05:41:57;;;;;;;0.28;0.20;;;15.20;77.40;;;;;;2508219;55;21428;-75
2023/11/19 05:44:24;;;;;;;1.12;0.30;;;15.20;77.40;;;;;;2517390;54;21003;-75
2023/11/19 05:46:50;;;;;;;0.77;0.35;;;15.20;77.40;;;;;;2516308;54;21012;-74
2023/11/19 05:49:17;;;;;;;0.93;0.40;;;15.30;77.50;;;;;;2516914;54;21051;-73
2023/11/19 05:51:44;;;;;;;0.88;0.43;;;15.30;77.50;;;;;;2283633;55;20975;-74
2023/11/19 05:54:10;;;;;;;0.55;0.32;;;15.30;77.50;;;;;;2283191;55;20959;-75
2023/11/19 05:56:38;;;;;;;2.15;0.40;;;15.30;77.50;;;;;;2283683;55;20983;-75
2023/11/19 05:59:07;;;;;;;2.15;0.40;;;15.30;77.40;;;;;;2516633;55;20940;-74
2023/11/19 06:01:41;;;;;;;0.68;0.30;;;15.30;77.50;;;;;;2517512;54;20956;-75
2023/11/19 06:04:07;;;;;;;2.47;0.50;;;15.30;77.30;;;;;;2283511;55;21005;-75
2023/11/19 06:06:34;;;;;;;0.22;0.20;;;15.30;77.40;;;;;;2517475;54;21011;-74
2023/11/19 06:09:02;;;;;;;0.65;0.40;;;15.30;77.50;;;;;;2517025;54;20952;-74
2023/11/19 06:11:38;;;;;;;0.68;0.40;;;15.30;77.50;;;;;;2517357;54;21532;-74
2023/11/19 06:14:05;;;;;;;1.02;0.40;;;15.30;77.50;;;;;;2517313;54;21036;-72
2023/11/19 06:16:32;;;;;;;0.60;0.30;;;15.30;77.50;;;;;;2516828;54;20982;-75
2023/11/19 06:18:58;;;;;;;0.45;0.20;;;15.30;77.50;;;;;;2283576;55;20967;-75
2023/11/19 06:21:24;;;;;;;0.50;0.30;;;15.30;77.50;;;;;;2283566;55;21047;-73
2023/11/19 06:23:53;;;;;;;0.77;0.30;;;15.40;77.70;;;;;;2517619;54;20991;-73
2023/11/19 06:26:19;;;;;;;0.75;0.30;;;15.40;77.70;;;;;;2516859;54;20975;-75
2023/11/19 06:28:46;;;;;;;0.90;0.35;;;15.40;77.70;;;;;;2271369;54;20961;-74
2023/11/19 06:31:15;;;;;;;0.80;0.30;;;15.40;77.70;;;;;;2270045;55;21780;-75
2023/11/19 06:33:42;;;;;;;0.70;0.30;;;15.40;77.70;;;;;;2517855;54;20978;-74
2023/11/19 06:36:09;;;;;;;0.85;0.30;;;15.50;77.80;;;;;;2283933;56;21018;-75
2023/11/19 06:38:35;;;;;;;0.43;0.20;;;15.40;77.70;;;;;;2284094;54;21070;-75
2023/11/19 06:41:07;;;;;;;0.65;0.30;;;15.40;78.00;;;;;;2283705;54;20957;-75
2023/11/19 06:43:36;;;;;;;0.65;0.30;;;15.50;77.80;;;;;;2545886;54;21006;-75
2023/11/19 06:46:06;;;;;;;0.20;0.20;;;15.50;77.80;;;;;;2554628;54;20954;-74
2023/11/19 06:48:32;;;;;;;0.73;0.30;;;15.50;77.80;;;;;;2314909;55;20967;-75
2023/11/19 06:50:59;;;;;;;1.10;0.47;;;15.60;77.90;;;;;;2314375;54;20949;-75
2023/11/19 06:53:27;;;;;;;1.20;0.40;;;15.60;77.90;;;;;;2315292;54;20954;-72
2023/11/19 06:55:54;;;;;;;0.77;0.40;;;15.60;77.90;;;;;;2553192;54;20975;-74
2023/11/19 06:58:20;;;;;;;0.73;0.30;;;15.60;77.80;;;;;;2314509;55;21492;-75
2023/11/19 07:00:49;;;;;;;0.90;0.40;;;15.60;77.80;;;;;;2553794;54;20967;-75
2023/11/19 07:03:15;;;;;;;0.85;0.40;;;15.60;77.80;;;;;;2314207;55;20935;-75
2023/11/19 07:05:42;;;;;;;1.70;0.52;;;15.60;77.80;;;;;;2314973;55;21424;-75
2023/11/19 07:08:10;;;;;;;1.00;0.40;;;15.70;77.90;;;;;;2554421;54;21035;-75
2023/11/19 07:10:36;;;;;;;2.65;0.37;;;15.70;77.90;;;;;;2554949;54;21058;-75
2023/11/19 07:13:04;;;;;;;1.05;0.35;;;15.70;77.90;;;;;;2554311;54;21023;-74
2023/11/19 07:15:30;;;;;;;1.37;0.45;;;15.60;77.70;;;;;;2314847;55;21089;-73
2023/11/19 07:17:58;;;;;;;0.65;0.20;;;15.70;77.90;;;;;;2314835;55;21176;-75
2023/11/19 07:20:27;;;;;;;1.20;0.30;;;15.70;77.90;;;;;;2554732;54;21062;-75
2023/11/19 07:22:55;;;;;;;2.17;0.35;;;15.70;77.80;;;;;;2315109;55;21050;-75
2023/11/19 07:25:23;;;;;;;1.00;0.40;;;15.70;77.80;;;;;;2555127;54;21039;-75
2023/11/19 07:27:52;;;;;;;0.60;0.25;;;15.70;77.80;;;;;;2554481;54;21473;-75
2023/11/19 07:30:18;;;;;;;0.32;0.20;;;15.80;77.90;;;;;;2313905;54;21361;-75
2023/11/19 07:32:45;;;;;;;1.08;0.30;;;15.70;77.80;;;;;;2555681;54;20967;-75
2023/11/19 07:35:11;;;;;;;1.70;0.30;;;15.70;77.90;;;;;;2553993;53;21389;-74
2023/11/19 07:37:39;;;;;;;0.52;0.30;;;15.80;77.90;;;;;;2554918;54;21078;-74
2023/11/19 07:40:06;;;;;;;0.52;0.25;;;15.80;77.90;;;;;;2553318;54;21026;-74
2023/11/19 07:42:35;;;;;;;0.52;0.25;;;15.80;77.90;;;;;;2314258;55;20967;-74
2023/11/19 07:45:01;;;;;;;2.25;0.50;;;15.80;77.90;;;;;;2314436;54;21829;-73
2023/11/19 07:47:28;;;;;;;1.65;0.50;;;15.80;77.90;;;;;;2554076;54;20947;-74
2023/11/19 07:49:57;;;;;;;1.10;0.35;;;15.80;77.90;;;;;;2554918;54;21042;-75
2023/11/19 07:52:24;;;;;;;0.80;0.40;;;15.90;78.00;;;;;;2554985;54;21024;-74
2023/11/19 07:54:50;;;;;;;1.10;0.60;;;15.90;78.10;;;;;;2555143;54;20959;-74
2023/11/19 07:57:16;;;;;;;0.77;0.40;;;15.90;78.10;;;;;;2314621;55;22120;-74
2023/11/19 07:59:43;;;;;;;1.15;0.40;;;15.90;78.10;;;;;;2320867;55;20942;-75
2023/11/19 08:02:09;;;;;;;1.10;0.40;;;15.90;78.10;;;;;;2308765;54;20995;-75
2023/11/19 08:04:35;;;;;;;1.08;0.25;;;15.90;78.10;;;;;;2555132;54;21128;-75
2023/11/19 08:07:02;;;;;;;0.77;0.35;;;15.90;78.10;;;;;;2555130;54;21008;-74
2023/11/19 08:09:30;;;;;;;2.70;0.50;;;16.00;78.20;;;;;;2554595;53;21043;-74
2023/11/19 08:11:57;;;;;;;4.03;0.90;;;15.90;78.00;;;;;;2550267;54;21030;-74
2023/11/19 08:14:24;;;;;;;4.72;1.00;;;16.00;78.20;;;;;;2555030;54;21035;-74
2023/11/19 08:16:50;;;;;;;3.47;1.00;;;16.00;78.20;;;;;;2555523;54;20943;-73
2023/11/19 08:19:17;;;;;;;1.70;0.57;;;16.00;78.10;;;;;;2314792;55;21788;-74
2023/11/19 08:21:43;;;;;;;2.47;0.75;;;16.00;78.10;;;;;;2554811;54;21014;-74
2023/11/19 08:24:09;;;;;;;1.92;0.60;;;16.10;78.20;;;;;;2553919;54;20943;-73
2023/11/19 08:26:36;;;;;;;1.30;0.40;;;16.00;78.10;;;;;;2314037;55;21508;-74
2023/11/19 08:29:03;;;;;;;4.35;1.00;;;16.10;78.20;;;;;;2554336;54;21010;-74
2023/11/19 08:31:29;;;;;;;1.45;0.50;;;16.10;78.10;;;;;;2272968;54;20956;-74
2023/11/19 08:33:56;;;;;;;1.40;0.50;;;16.10;78.10;;;;;;2486017;54;21475;-74
2023/11/19 08:36:25;;;;;;;0.82;0.40;;;16.10;78.10;;;;;;2257821;54;21011;-74
2023/11/19 08:38:51;;;;;;;1.08;0.40;;;16.10;78.10;;;;;;2258428;54;20964;-72
2023/11/19 08:41:19;;;;;;;0.70;0.37;;;16.10;78.00;;;;;;2485625;54;21474;-74
2023/11/19 08:43:46;;;;;;;2.80;0.60;;;16.20;78.10;;;;;;2259144;54;21035;-74
2023/11/19 08:46:13;;;;;;;0.80;0.40;;;16.10;78.10;;;;;;2485869;54;20932;-74
2023/11/19 08:48:39;;;;;;;0.50;0.32;;;16.20;78.20;;;;;;2486652;54;20980;-74
2023/11/19 08:51:06;;;;;;;1.23;0.40;;;16.20;78.20;;;;;;2257783;54;21019;-74
2023/11/19 08:53:32;;;;;;;1.50;0.52;;;16.20;78.20;;;;;;2485682;54;20944;-74
2023/11/19 08:55:59;;;;;;;0.98;0.50;;;16.20;78.30;;;;;;2485574;54;20976;-75
2023/11/19 08:58:25;;;;;;;0.80;0.32;;;16.20;78.20;;;;;;2485919;54;20948;-74
2023/11/19 09:00:52;;;;;;;1.15;0.47;;;16.20;78.20;;;;;;2485899;54;21536;-74
2023/11/19 09:03:20;;;;;;;1.15;0.50;;;16.20;78.20;;;;;;2485343;54;21823;-74
2023/11/19 09:05:46;;;;;;;1.25;0.47;;;16.30;78.30;;;;;;2506826;53;21053;-74
2023/11/19 09:08:13;;;;;;;0.68;0.35;;;16.30;78.20;;;;;;2511821;53;21084;-73
2023/11/19 09:10:40;;;;;;;1.02;0.40;;;16.30;78.10;;;;;;2294483;54;21542;-74
2023/11/19 09:13:06;;;;;;;0.95;0.40;;;16.30;78.10;;;;;;2518712;53;20978;-73
2023/11/19 09:15:32;;;;;;;1.02;0.45;;;16.30;78.10;;;;;;2279419;54;21009;-74
2023/11/19 09:17:59;;;;;;;1.15;0.45;;;16.30;78.00;;;;;;2512604;53;21018;-74
2023/11/19 09:20:25;;;;;;;0.88;0.50;;;16.30;78.10;;;;;;2279433;54;21025;-73
2023/11/19 09:22:51;;;;;;;0.65;0.35;;;16.30;78.10;;;;;;2295101;54;20972;-73
2023/11/19 09:25:18;;;;;;;0.85;0.45;;;16.30;78.10;;;;;;2517563;53;21009;-74
2023/11/19 09:27:44;;;;;;;1.90;0.60;;;16.30;78.20;;;;;;2279992;54;20957;-73
2023/11/19 09:30:12;;;;;;;1.87;0.50;;;16.40;78.30;;;;;;2279501;54;21065;-74
2023/11/19 09:32:41;;;;;;;2.03;0.60;;;16.40;78.20;;;;;;2279048;54;20982;-74
2023/11/19 09:35:08;;;;;;;1.17;0.57;;;16.40;78.20;;;;;;2279296;54;21083;-74
2023/11/19 09:37:34;;;;;;;2.85;0.55;;;16.40;78.20;;;;;;2512239;54;20981;-74
2023/11/19 09:40:01;;;;;;;1.58;0.50;;;16.40;78.20;;;;;;2280422;54;20969;-73
2023/11/19 09:42:28;;;;;;;3.83;1.10;;;16.40;78.20;;;;;;2280250;54;21009;-74
2023/11/19 09:44:55;;;;;;;3.17;1.37;;;16.40;78.20;;;;;;2512569;54;21025;-74
2023/11/19 09:47:21;;;;;;;3.50;1.70;;;16.50;78.40;;;;;;2279703;54;20950;-75
2023/11/19 09:49:50;;;;;;;2.90;1.20;;;16.50;78.40;;;;;;2299761;54;20964;-75
2023/11/19 09:52:18;;;;;;;1.70;0.70;;;16.50;78.40;;;;;;2506025;54;20993;-74
2023/11/19 09:54:44;;;;;;;3.30;0.77;;;16.50;78.20;;;;;;2506613;54;20956;-74
2023/11/19 09:57:12;;;;;;;1.62;0.70;;;16.50;78.20;;;;;;2489210;54;20966;-74
2023/11/19 09:59:38;;;;;;;1.35;0.60;;;16.50;78.10;;;;;;2263448;54;20941;-74
2023/11/19 10:02:04;;;;;;;1.25;0.65;;;16.50;78.00;;;;;;2288352;53;20981;-73
2023/11/19 10:04:32;;;;;;;1.12;0.55;;;16.60;78.10;;;;;;2289768;53;21013;-73
2023/11/19 10:06:59;;;;;;;2.62;0.60;;;16.60;78.00;;;;;;2523430;53;20986;-73
2023/11/19 10:09:25;;;;;;;1.60;0.60;;;16.60;78.00;;;;;;2288563;53;21387;-74
2023/11/19 10:11:52;;;;;;;1.70;0.70;;;16.70;78.00;;;;;;2288853;53;20962;-73
2023/11/19 10:14:20;;;;;;;1.77;0.60;;;16.60;78.00;;;;;;2522950;53;21029;-76
2023/11/19 10:16:47;;;;;;;1.48;0.70;;;16.60;77.80;;;;;;2523663;53;21089;-76
2023/11/19 10:19:20;;;;;;;1.55;0.55;;;16.60;77.90;;;;;;2288765;53;21517;-76
2023/11/19 10:21:46;;;;;;;1.92;0.73;;;16.60;77.80;;;;;;2287654;53;20995;-73
2023/11/19 10:24:13;;;;;;;2.53;0.98;;;16.60;77.90;;;;;;2288322;53;21026;-75
2023/11/19 10:26:56;;;;;;;2.25;0.90;;;16.60;78.00;;;;;;2522836;53;21859;-75
2023/11/19 10:29:23;;;;;;;2.80;1.10;;;16.60;78.60;;;;;;2521467;53;20998;-76
2023/11/19 10:31:57;;;;;;;2.78;0.95;;;16.60;78.00;;;;;;2288330;53;21057;-73
2023/11/19 10:34:26;;;;;;;2.10;0.95;;;16.70;78.10;;;;;;2532588;53;20939;-74
2023/11/19 10:36:52;;;;;;;2.83;1.02;;;16.60;78.10;;;;;;2540565;53;21356;-76
2023/11/19 10:39:18;;;;;;;3.05;0.80;;;16.70;78.20;;;;;;2511447;54;20983;-73
2023/11/19 10:41:45;;;;;;;2.00;0.82;;;16.70;78.20;;;;;;2262472;55;20979;-72
2023/11/19 10:44:11;;;;;;;3.55;1.00;;;16.70;78.30;;;;;;2279491;55;20979;-72
2023/11/19 10:46:41;;;;;;;1.95;0.82;;;16.70;78.30;;;;;;2283942;55;20991;-76
2023/11/19 10:49:10;;;;;;;2.90;0.93;;;16.70;78.20;;;;;;2491413;54;21038;-74
2023/11/19 10:51:37;;;;;;;2.22;0.70;;;16.80;78.40;;;;;;2491351;54;21020;-74
2023/11/19 10:54:07;;;;;;;2.10;0.85;;;16.70;78.30;;;;;;2492009;54;20959;-74
2023/11/19 10:56:35;;;;;;;3.55;1.17;;;16.70;78.20;;;;;;2262209;54;21023;-73
2023/11/19 10:59:03;;;;;;;2.33;0.93;;;16.80;78.40;;;;;;2515355;54;21011;-74
2023/11/19 11:01:40;;;;;;;4.20;1.40;;;16.80;78.40;;;;;;2509729;54;20971;-74
2023/11/19 11:04:08;;;;;;;2.85;1.58;;;16.80;78.20;;;;;;2491541;54;20947;-74
2023/11/19 11:06:34;;;;;;;2.08;1.00;;;16.80;78.40;;;;;;2262644;55;21266;-74
2023/11/19 11:09:00;;;;;;;2.72;1.20;;;16.80;78.40;;;;;;2263039;55;20958;-74
2023/11/19 11:11:28;;;;;;;1.83;0.82;;;16.90;78.50;;;;;;2490911;54;20975;-73
2023/11/19 11:13:54;;;;;;;4.45;1.37;;;16.90;78.50;;;;;;2263169;55;20915;-74
2023/11/19 11:16:21;;;;;;;3.33;1.20;;;16.90;78.50;;;;;;2263224;55;21275;-74
2023/11/19 11:18:49;;;;;;;2.75;1.08;;;16.90;78.40;;;;;;2263518;55;20963;-74
2023/11/19 11:21:17;;;;;;;4.93;0.75;;;16.90;78.30;;;;;;2262949;55;21087;-74
2023/11/19 11:26:25;;;;;;;1.48;0.65;;;16.90;78.30;;;;;;2491488;54;20955;-74
2023/11/19 11:29:20;;;;;;;1.85;0.70;;;17.00;77.50;;;;;;2491779;54;20976;-72
2023/11/19 11:33:31;;;;;;;2.75;0.70;;;17.10;78.00;;;;;;2262776;55;20960;-74
2023/11/19 11:36:32;;;;;;;2.10;0.60;;;17.00;77.90;;;;;;2499227;54;20972;-74
2023/11/19 11:39:00;;;;;;;2.30;0.82;;;17.10;78.10;;;;;;2286685;55;20960;-76
2023/11/19 11:41:26;;;;;;;3.05;0.85;;;17.10;78.50;;;;;;2272057;55;21916;-74
2023/11/19 11:43:57;;;;;;;3.67;0.77;;;17.10;78.60;;;;;;2278302;55;20955;-76
2023/11/19 11:47:24;;;;;;;1.20;0.50;;;17.10;78.60;;;;;;2278416;55;21332;-74
2023/11/19 11:49:51;;;;;;;2.65;0.60;;;17.10;77.80;;;;;;2278512;55;21046;-74
2023/11/19 11:52:17;;;;;;;2.28;0.70;;;17.20;78.70;;;;;;2278446;55;21019;-74
2023/11/19 11:54:45;;;;;;;1.70;0.70;;;17.20;78.80;;;;;;2280553;55;21548;-74
2023/11/19 11:57:20;;;;;;;1.50;0.70;;;17.20;78.80;;;;;;2514857;54;21071;-75
2023/11/19 11:59:47;;;;;;;1.80;0.70;;;17.20;78.60;;;;;;2529588;54;21064;-74
2023/11/19 12:02:24;;;;;;;1.60;0.62;;;17.20;78.60;;;;;;2279001;55;21032;-75
2023/11/19 12:04:52;;;;;;;2.10;0.75;;;17.20;78.60;;;;;;2512076;54;21020;-74
2023/11/19 12:07:22;;;;;;;2.67;0.75;;;17.30;78.70;;;;;;2304266;55;21502;-75
2023/11/19 12:10:11;;;;;;;2.25;0.70;;;17.30;78.60;;;;;;2509816;54;20925;-74
2023/11/19 12:12:40;;;;;;;2.00;0.77;;;17.30;78.20;;;;;;2288801;55;21552;-73
2023/11/19 12:15:10;;;;;;;2.55;0.85;;;17.40;78.70;;;;;;2291927;55;20944;-76
2023/11/19 12:17:44;;;;;;;3.08;0.95;;;17.40;78.70;;;;;;2279912;55;21008;-74
2023/11/19 12:20:11;;;;;;;2.20;0.68;;;17.40;78.90;;;;;;2285343;55;21281;-76
2023/11/19 12:22:38;;;;;;;2.08;0.90;;;17.40;78.90;;;;;;2297039;55;21802;-75
2023/11/19 12:25:11;;;;;;;1.50;0.60;;;17.40;79.70;;;;;;2513148;54;21024;-75
2023/11/19 12:27:50;;;;;;;2.10;0.90;;;17.50;79.10;;;;;;2280485;55;21908;-74
2023/11/19 12:30:25;;;;;;;2.85;0.77;;;17.50;78.90;;;;;;2280168;55;20995;-75
2023/11/19 12:32:54;;;;;;;2.58;0.90;;;17.50;78.80;;;;;;2280982;55;21419;-74
2023/11/19 12:35:21;;;;;;;2.03;0.90;;;17.60;79.10;;;;;;2512663;54;20960;-74
2023/11/19 12:37:48;;;;;;;1.60;0.62;;;17.60;79.10;;;;;;2293718;55;20951;-74
2023/11/19 12:40:24;;;;;;;1.90;0.80;;;17.60;79.00;;;;;;2520649;54;21024;-76
2023/11/19 12:42:54;;;;;;;2.60;0.80;;;17.60;78.60;;;;;;2512583;54;20980;-74
2023/11/19 12:45:23;;;;;;;1.55;0.75;;;17.70;78.80;;;;;;2512789;54;21001;-74
2023/11/19 12:47:52;;;;;;;2.03;0.65;;;17.70;78.90;;;;;;2280208;55;20960;-74
2023/11/19 12:50:20;;;;;;;2.67;1.40;;;17.70;79.00;;;;;;2285804;54;20968;-75
2023/11/19 12:52:56;;;;;;;3.70;1.73;;;17.70;79.10;;;;;;2529960;54;20980;-76
2023/11/19 12:55:29;;;;;;;3.10;1.40;;;17.70;78.70;;;;;;2302217;55;20973;-74
2023/11/19 12:57:58;;;;;;;2.78;0.98;;;17.80;79.00;;;;;;2528904;54;21852;-74